Time;durP1;ratioP1;P1;durP2;ratioP2;P2;SDS_P1;SDS_P2;PMS_P1;PMS_P2;Temp;Humidity;BMP_temperature;BMP_pressure;BME280_temperature;BME280_humidity;BME280_pressure;Samples;Min_cycle;Max_cycle;Signal;HPM_P1;HPM_P2
2022/09/07 00:00:56;;;;;;;;;;;;;;;21.65;61.25;100032.22;4381986;32;40397;-92
2022/09/07 00:03:24;;;;;;;;;;;;;;;21.69;61.30;100026.81;4369110;32;37500;-87
2022/09/07 00:05:52;;;;;;;;;;;;;;;21.70;61.28;100031.22;4372049;32;39108;-86
2022/09/07 00:08:20;;;;;;;;;;;;;;;21.67;61.20;100031.28;4375061;32;39545;-90
2022/09/07 00:10:54;;;;;;;;;;;;;;;21.32;62.32;100027.75;4369130;32;38918;-90
2022/09/07 00:13:22;;;;;;;;;;;;;;;21.39;62.01;100030.28;4369417;32;37111;-93
2022/09/07 00:15:49;;;;;;;;;;;;;;;21.26;62.11;100035.81;4368208;32;37853;-92
2022/09/07 00:18:16;;;;;;;;;;;;;;;21.29;62.05;100030.47;4369472;32;38350;-92
2022/09/07 00:20:44;;;;;;;;;;;;;;;21.40;61.78;100026.72;4373733;32;40300;-95
2022/09/07 00:23:12;;;;;;;;;;;;;;;21.45;61.57;100019.59;4369134;32;37152;-89
2022/09/07 00:25:39;;;;;;;;;;;;;;;21.30;61.72;100021.66;4380005;32;38421;-93
2022/09/07 00:28:07;;;;;;;;;;;;;;;21.23;62.17;100009.56;4375741;32;37847;-91
2022/09/07 00:30:39;;;;;;;;;;;;;;;21.30;61.71;100021.66;4369053;32;38491;-94
2022/09/07 00:33:07;;;;;;;;;;;;;;;21.29;61.61;100008.53;4355392;32;37865;-91
2022/09/07 00:35:40;;;;;;;;;;;;;;;21.11;62.09;100005.44;4372738;32;39183;-91
2022/09/07 00:38:07;;;;;;;;;;;;;;;21.04;62.32;100003.00;4383749;32;38026;-91
2022/09/07 00:40:35;;;;;;;;;;;;;;;20.88;62.64;100002.50;4383280;32;39179;-90
2022/09/07 00:43:03;;;;;;;;;;;;;;;21.05;62.01;99999.47;4390412;32;37456;-91
2022/09/07 00:45:30;;;;;;;;;;;;;;;21.23;61.83;100009.56;4371365;32;38065;-92
2022/09/07 00:48:00;;;;;;;;;;;;;;;21.31;61.59;100010.22;4377163;32;37931;-92
2022/09/07 00:50:29;;;;;;;;;;;;;;;21.36;61.38;100004.88;4380665;32;39548;-92
2022/09/07 00:53:04;;;;;;;;;;;;;;;21.13;61.73;100008.06;4377311;32;37706;-86
2022/09/07 00:55:32;;;;;;;;;;;;;;;21.26;60.92;100004.22;4375114;32;38047;-91
2022/09/07 00:57:59;;;;;;;;;;;;;;;21.31;60.95;100002.34;4386591;32;39493;-94
2022/09/07 01:00:27;;;;;;;;;;;;;;;21.12;61.42;100001.03;4370815;32;40631;-94
2022/09/07 01:02:57;;;;;;;;;;;;;;;21.28;60.84;99997.16;4383087;32;37738;-95
2022/09/07 01:05:26;;;;;;;;;;;;;;;21.10;61.30;100002.87;4383768;32;37565;-92
2022/09/07 01:07:55;;;;;;;;;;;;;;;20.92;61.95;99998.03;4372490;32;38235;-94
2022/09/07 01:10:24;;;;;;;;;;;;;;;21.01;61.67;99997.81;4375648;32;39900;-95
2022/09/07 01:12:51;;;;;;;;;;;;;;;21.11;61.62;100000.19;4355229;32;36590;-94
2022/09/07 01:15:19;;;;;;;;;;;;;;;21.08;61.59;100002.03;4369175;32;38330;-94
2022/09/07 01:17:55;;;;;;;;;;;;;;;21.16;61.18;100007.97;4349799;32;38860;-95
2022/09/07 01:20:35;;;;;;;;;;;;;;;21.07;61.57;100013.47;4369126;32;39740;-94
2022/09/07 01:23:22;;;;;;;;;;;;;;;20.98;61.59;100004.00;4387442;32;36896;-92
2022/09/07 01:26:05;;;;;;;;;;;;;;;20.89;61.79;99998.97;4371200;32;38834;-94
2022/09/07 01:28:33;;;;;;;;;;;;;;;20.92;61.46;99998.91;4368187;32;37683;-90
2022/09/07 01:31:04;;;;;;;;;;;;;;;20.85;61.53;99998.19;4386509;32;39526;-88
2022/09/07 01:33:37;;;;;;;;;;;;;;;20.66;62.36;99991.63;4370754;32;36465;-95
2022/09/07 01:36:19;;;;;;;;;;;;;;;20.57;62.70;99995.31;4370604;32;38358;-85
2022/09/07 01:38:49;;;;;;;;;;;;;;;20.82;61.70;99992.97;4388926;32;37839;-84
2022/09/07 01:41:17;;;;;;;;;;;;;;;20.76;61.78;99995.75;4374485;32;38559;-90
2022/09/07 01:43:53;;;;;;;;;;;;;;;20.70;61.54;99993.25;4392511;32;38423;-88
2022/09/07 01:46:30;;;;;;;;;;;;;;;20.73;61.43;99993.19;4388036;32;40891;-88
2022/09/07 01:49:09;;;;;;;;;;;;;;;20.70;61.48;99992.41;4391608;32;40184;-95
2022/09/07 01:51:37;;;;;;;;;;;;;;;20.54;61.88;99976.09;4387901;32;39317;-96
2022/09/07 01:54:07;;;;;;;;;;;;;;;20.47;62.12;99974.50;4371369;32;36906;-96
2022/09/07 01:56:35;;;;;;;;;;;;;;;20.68;61.06;99979.31;4066508;32;10010800;-96
2022/09/07 01:59:03;;;;;;;;;;;;;;;20.36;62.37;99972.97;4386213;32;20025;-95
2022/09/07 02:01:33;;;;;;;;;;;;;;;20.47;61.97;99979.75;4366021;32;37944;-96
2022/09/07 02:04:06;;;;;;;;;;;;;;;20.68;60.92;99974.03;4390982;32;39288;-93
2022/09/07 02:06:45;;;;;;;;;;;;;;;20.58;61.35;99973.38;4386641;32;36766;-96
2022/09/07 02:09:31;;;;;;;;;;;;;;;20.13;62.73;99969.94;4390501;32;36771;-90
2022/09/07 02:12:01;;;;;;;;;;;;;;;20.30;62.00;99973.09;4387914;32;38490;-94
2022/09/07 02:14:32;;;;;;;;;;;;;;;20.42;61.62;99977.19;4408655;32;38999;-91
2022/09/07 02:17:02;;;;;;;;;;;;;;;20.44;61.25;99970.16;4387881;32;37359;-93
2022/09/07 02:19:32;;;;;;;;;;;;;;;20.28;61.79;99979.28;4390808;32;37968;-88
2022/09/07 02:22:01;;;;;;;;;;;;;;;20.37;61.61;99974.69;4385502;32;38370;-93
2022/09/07 02:24:30;;;;;;;;;;;;;;;20.33;61.63;99978.28;4387957;32;39879;-96
2022/09/07 02:27:02;;;;;;;;;;;;;;;20.52;60.60;99972.66;4182667;32;10000844;-85
2022/09/07 02:29:29;;;;;;;;;;;;;;;20.34;61.53;99958.97;4387847;32;20038;-94
2022/09/07 02:31:57;;;;;;;;;;;;;;;20.21;62.33;99963.63;4385983;32;37163;-91
2022/09/07 02:34:24;;;;;;;;;;;;;;;20.15;62.41;99968.16;4362747;32;987135;-91
2022/09/07 02:36:51;;;;;;;;;;;;;;;20.39;61.17;99962.37;4394143;32;36999;-90
2022/09/07 02:39:19;;;;;;;;;;;;;;;20.26;61.63;99960.94;4391349;32;38546;-94
2022/09/07 02:41:46;;;;;;;;;;;;;;;20.36;61.08;99954.56;4397900;32;38061;-95
2022/09/07 02:44:15;;;;;;;;;;;;;;;20.14;62.09;99945.41;4396244;32;37506;-95
2022/09/07 02:46:51;;;;;;;;;;;;;;;20.21;61.64;99949.63;4408033;32;37107;-96
2022/09/07 02:49:24;;;;;;;;;;;;;;;20.21;61.64;99952.25;4408203;32;38739;-90
2022/09/07 02:51:58;;;;;;;;;;;;;;;20.21;61.66;99952.25;4396650;32;37723;-96
2022/09/07 02:54:38;;;;;;;;;;;;;;;20.31;61.33;99953.78;4380875;32;38599;-91
2022/09/07 02:57:24;;;;;;;;;;;;;;;20.24;61.75;99946.94;4392855;32;36820;-96
2022/09/07 02:59:58;;;;;;;;;;;;;;;20.24;61.90;99946.94;4389746;32;39107;-96
2022/09/07 03:02:25;;;;;;;;;;;;;;;20.35;61.62;99947.56;4388246;32;37830;-90
2022/09/07 03:05:25;;;;;;;;;;;;;;;19.91;63.15;99949.38;4391869;32;39951;-94
2022/09/07 03:07:52;;;;;;;;;;;;;;;20.11;62.77;99956.00;4364369;32;36850;-83
2022/09/07 03:10:20;;;;;;;;;;;;;;;20.31;61.85;99951.16;4382879;32;37796;-96
2022/09/07 03:12:48;;;;;;;;;;;;;;;20.33;61.83;99949.38;4372283;32;37752;-92
2022/09/07 03:15:17;;;;;;;;;;;;;;;20.35;62.14;99947.56;4383527;32;39100;-89
2022/09/07 03:17:45;;;;;;;;;;;;;;;20.27;62.48;99946.88;4386435;32;38132;-96
2022/09/07 03:20:12;;;;;;;;;;;;;;;20.28;62.59;99948.59;4378937;32;38148;-92
2022/09/07 03:22:40;;;;;;;;;;;;;;;20.05;63.30;99941.22;4391560;32;38104;-93
2022/09/07 03:25:09;;;;;;;;;;;;;;;20.22;62.78;99943.47;4381412;32;38904;-89
2022/09/07 03:27:36;;;;;;;;;;;;;;;20.11;63.01;99942.84;4370024;32;38149;-87
2022/09/07 03:30:04;;;;;;;;;;;;;;;20.22;62.52;99940.84;4375473;32;38146;-95
2022/09/07 03:32:53;;;;;;;;;;;;;;;20.22;62.58;99943.47;4381250;32;37485;-96
2022/09/07 03:35:23;;;;;;;;;;;;;;;20.25;62.11;99940.78;4372725;32;38727;-94
2022/09/07 03:37:51;;;;;;;;;;;;;;;20.06;62.92;99936.81;4379816;32;36858;-91
2022/09/07 03:40:18;;;;;;;;;;;;;;;20.02;63.00;99945.66;4379510;32;38722;-91
2022/09/07 03:42:48;;;;;;;;;;;;;;;20.03;62.65;99942.13;4378295;32;36812;-87
2022/09/07 03:45:16;;;;;;;;;;;;;;;20.07;62.61;99949.03;4369749;32;38965;-93
2022/09/07 03:47:43;;;;;;;;;;;;;;;19.85;62.97;99952.12;4371730;32;37598;-91
2022/09/07 03:50:11;;;;;;;;;;;;;;;19.98;62.43;99950.97;4384256;32;38460;-88
2022/09/07 03:52:39;;;;;;;;;;;;;;;20.05;62.15;99956.97;4378855;32;37959;-96
2022/09/07 03:55:07;;;;;;;;;;;;;;;20.03;62.14;99957.91;4376306;32;40444;-96
2022/09/07 03:57:35;;;;;;;;;;;;;;;19.87;62.88;99960.84;4395977;32;37792;-95
2022/09/07 04:00:03;;;;;;;;;;;;;;;20.03;62.45;99963.16;4393168;32;39164;-91
2022/09/07 04:02:38;;;;;;;;;;;;;;;20.06;62.35;99960.47;4381280;32;39404;-95
2022/09/07 04:05:06;;;;;;;;;;;;;;;20.03;62.25;99952.66;4389637;32;39903;-96
2022/09/07 04:07:34;;;;;;;;;;;;;;;19.87;62.66;99958.19;4360771;32;36752;-88
2022/09/07 04:10:01;;;;;;;;;;;;;;;20.06;61.77;99957.84;4382081;32;37583;-92
2022/09/07 04:12:29;;;;;;;;;;;;;;;20.26;61.08;99963.56;4376375;32;39041;-94
2022/09/07 04:14:56;;;;;;;;;;;;;;;20.15;61.55;99968.16;4380651;32;39629;-90
2022/09/07 04:17:24;;;;;;;;;;;;;;;20.11;61.61;99966.50;4369310;32;37706;-87
2022/09/07 04:19:51;;;;;;;;;;;;;;;20.01;61.83;99968.47;4369402;32;39764;-91
2022/09/07 04:22:18;;;;;;;;;;;;;;;20.00;62.09;99968.47;4369645;32;38065;-90
2022/09/07 04:24:46;;;;;;;;;;;;;;;19.72;63.09;99969.91;4369271;32;38986;-90
2022/09/07 04:27:13;;;;;;;;;;;;;;;19.93;62.34;99979.09;4370262;32;36918;-85
2022/09/07 04:29:40;;;;;;;;;;;;;;;19.92;62.49;99974.75;4373760;32;38079;-85
2022/09/07 04:32:07;;;;;;;;;;;;;;;20.00;62.43;99973.72;4369185;32;38061;-82
2022/09/07 04:34:41;;;;;;;;;;;;;;;19.88;62.65;99975.72;4369357;32;39157;-91
2022/09/07 04:37:08;;;;;;;;;;;;;;;20.20;61.52;99979.44;4376824;32;36306;-90
2022/09/07 04:39:35;;;;;;;;;;;;;;;20.11;61.68;99982.28;4380669;32;38194;-81
2022/09/07 04:42:03;;;;;;;;;;;;;;;19.56;63.40;100001.66;4379740;32;38394;-89
2022/09/07 04:44:30;;;;;;;;;;;;;;;19.80;62.76;99988.13;4390857;32;39022;-87
2022/09/07 04:46:58;;;;;;;;;;;;;;;20.04;62.12;99991.16;4387857;32;36889;-94
2022/09/07 04:49:25;;;;;;;;;;;;;;;20.21;62.12;99989.06;4382025;32;38135;-88
2022/09/07 04:51:52;;;;;;;;;;;;;;;19.90;63.82;99997.56;4349694;32;39024;-87
2022/09/07 04:54:20;;;;;;;;;;;;;;;20.16;62.89;100001.41;4352228;32;38810;-90
2022/09/07 04:56:47;;;;;;;;;;;;;;;20.08;63.22;100000.72;4352216;32;37809;-86
2022/09/07 04:59:14;;;;;;;;;;;;;;;20.25;63.03;99990.72;4352326;32;38165;-86
2022/09/07 05:01:41;;;;;;;;;;;;;;;20.40;62.59;99995.66;4350979;32;38989;-87
2022/09/07 05:04:09;;;;;;;;;;;;;;;20.41;63.02;99986.84;4351287;32;39179;-88
2022/09/07 05:06:37;;;;;;;;;;;;;;;20.35;63.38;99988.75;4358390;32;37682;-86
2022/09/07 05:09:04;;;;;;;;;;;;;;;20.25;63.65;99985.47;4354321;32;37996;-86
2022/09/07 05:11:31;;;;;;;;;;;;;;;20.18;63.98;99983.88;4352913;32;37598;-86
2022/09/07 05:14:00;;;;;;;;;;;;;;;20.33;63.60;99994.06;4340384;32;38254;-86
2022/09/07 05:16:28;;;;;;;;;;;;;;;20.29;64.35;99987.13;4352930;32;37303;-86
2022/09/07 05:18:56;;;;;;;;;;;;;;;20.49;63.62;99993.75;4353906;32;38785;-86
2022/09/07 05:21:24;;;;;;;;;;;;;;;20.51;63.89;99990.19;4353091;32;38859;-86
2022/09/07 05:23:52;;;;;;;;;;;;;;;20.35;64.57;99996.66;4356080;32;39047;-85
2022/09/07 05:26:21;;;;;;;;;;;;;;;20.56;64.15;100005.88;4369080;32;37272;-86
2022/09/07 05:28:48;;;;;;;;;;;;;;;20.71;63.76;100005.53;4371663;32;37960;-86
2022/09/07 05:31:17;;;;;;;;;;;;;;;20.82;63.63;100003.50;4369515;32;37885;-86
2022/09/07 05:33:47;;;;;;;;;;;;;;;20.61;65.07;100014.50;4368573;32;39711;-86
2022/09/07 05:36:34;;;;;;;;;;;;;;;20.65;65.17;100008.31;4374685;32;37534;-86
2022/09/07 05:39:02;;;;;;;;;;;;;;;20.87;64.23;100006.91;4368957;32;37854;-86
2022/09/07 05:41:29;;;;;;;;;;;;;;;21.06;63.95;100007.34;4375929;32;38287;-86
2022/09/07 05:43:58;;;;;;;;;;;;;;;21.03;64.31;100006.56;4368547;32;39156;-85
2022/09/07 05:46:46;;;;;;;;;;;;;;;20.96;64.80;100005.81;4369348;32;37897;-85
2022/09/07 05:49:13;;;;;;;;;;;;;;;21.18;63.89;100008.78;4370027;32;38161;-85
2022/09/07 05:51:40;;;;;;;;;;;;;;;21.25;63.91;100005.12;4367319;32;37862;-86
2022/09/07 05:54:09;;;;;;;;;;;;;;;21.22;64.25;100009.56;4374979;32;39255;-86
2022/09/07 05:56:37;;;;;;;;;;;;;;;21.33;64.04;100016.31;4378024;32;37422;-86
2022/09/07 05:59:04;;;;;;;;;;;;;;;21.46;63.75;100009.00;4378574;32;37705;-86
2022/09/07 06:01:34;;;;;;;;;;;;;;;21.44;64.04;100012.56;4373084;32;38133;-89
2022/09/07 06:04:04;;;;;;;;;;;;;;;21.53;63.94;100017.59;4369046;32;39767;-86
2022/09/07 06:06:31;;;;;;;;;;;;;;;21.52;63.77;100013.25;4367859;32;38166;-90
2022/09/07 06:08:59;;;;;;;;;;;;;;;21.72;63.29;100012.72;4353155;32;37486;-91
2022/09/07 06:11:26;;;;;;;;;;;;;;;21.83;62.95;100011.53;4374457;32;38036;-91
2022/09/07 06:13:53;;;;;;;;;;;;;;;21.61;63.49;100018.28;4370853;32;38700;-91
2022/09/07 06:16:21;;;;;;;;;;;;;;;21.68;63.62;100014.56;4380534;32;37786;-90
2022/09/07 06:18:49;;;;;;;;;;;;;;;21.95;62.36;100020.88;4369050;32;38182;-89
2022/09/07 06:21:20;;;;;;;;;;;;;;;21.91;62.47;100023.63;4386589;32;37595;-89
2022/09/07 06:23:48;;;;;;;;;;;;;;;22.08;62.05;100025.78;4368302;32;38982;-90
2022/09/07 06:26:16;;;;;;;;;;;;;;;22.06;62.47;100020.56;4368405;32;37303;-90
2022/09/07 06:28:44;;;;;;;;;;;;;;;21.90;62.11;100016.63;4368063;32;39627;-90
2022/09/07 06:31:17;;;;;;;;;;;;;;;22.26;61.04;100015.59;4367839;32;39170;-91
2022/09/07 06:33:46;;;;;;;;;;;;;;;22.44;60.83;100014.22;4387444;32;38865;-90
2022/09/07 06:36:14;;;;;;;;;;;;;;;22.57;60.00;100004.16;4371544;32;37171;-90
2022/09/07 06:38:42;;;;;;;;;;;;;;;22.57;59.51;100013.84;4382788;32;38296;-90
2022/09/07 06:41:12;;;;;;;;;;;;;;;22.59;58.79;100007.63;4368244;32;37855;-90
2022/09/07 06:44:00;;;;;;;;;;;;;;;22.58;59.71;100005.00;4394886;32;38262;-90
2022/09/07 06:46:27;;;;;;;;;;;;;;;22.52;59.26;100006.91;4386078;32;35714;-92
2022/09/07 06:49:15;;;;;;;;;;;;;;;22.64;58.85;100010.97;4372014;32;39714;-88
2022/09/07 06:51:42;;;;;;;;;;;;;;;22.87;58.13;100017.28;4357418;32;38144;-89
2022/09/07 06:54:09;;;;;;;;;;;;;;;22.90;58.72;100014.56;4386607;32;39682;-91
2022/09/07 06:56:57;;;;;;;;;;;;;;;23.21;58.66;100006.53;4375531;32;37736;-91
2022/09/07 06:59:24;;;;;;;;;;;;;;;23.55;57.46;99998.34;4368325;32;38478;-88
2022/09/07 07:01:51;;;;;;;;;;;;;;;23.83;56.68;100003.53;4359794;32;37479;-91
2022/09/07 07:04:19;;;;;;;;;;;;;;;24.14;55.68;100000.63;4370566;32;39061;-91
2022/09/07 07:06:46;;;;;;;;;;;;;;;24.38;55.12;99998.00;4367523;32;36708;-91
2022/09/07 07:09:13;;;;;;;;;;;;;;;24.67;52.81;100001.34;4369036;32;37991;-93
2022/09/07 07:11:43;;;;;;;;;;;;;;;24.99;52.42;100008.84;4379913;32;38156;-91
2022/09/07 07:14:14;;;;;;;;;;;;;;;25.29;52.16;100011.19;4355387;32;38705;-90
2022/09/07 07:16:41;;;;;;;;;;;;;;;25.57;53.48;100012.66;4373925;32;37625;-92
2022/09/07 07:19:09;;;;;;;;;;;;;;;25.85;52.34;100007.91;4367943;32;36925;-93
2022/09/07 07:21:36;;;;;;;;;;;;;;;25.93;51.62;100008.41;4373250;32;37863;-85
2022/09/07 07:24:24;;;;;;;;;;;;;;;26.18;51.67;100015.28;4363970;32;39665;-90
2022/09/07 07:26:51;;;;;;;;;;;;;;;26.53;49.61;100012.81;4365399;32;36799;-91
2022/09/07 07:29:18;;;;;;;;;;;;;;;26.75;48.36;100013.53;4362378;32;37753;-89
2022/09/07 07:31:51;;;;;;;;;;;;;;;26.48;48.60;100006.81;4373523;32;38231;-91
2022/09/07 07:34:18;;;;;;;;;;;;;;;26.63;49.19;100006.16;4368943;32;38991;-88
2022/09/07 07:36:46;;;;;;;;;;;;;;;26.98;48.87;100011.56;4387602;32;37145;-86
2022/09/07 07:39:13;;;;;;;;;;;;;;;27.13;49.62;100000.16;4367852;32;36991;-92
2022/09/07 07:42:01;;;;;;;;;;;;;;;27.12;48.39;100014.38;4375269;32;37983;-92
2022/09/07 07:44:31;;;;;;;;;;;;;;;27.34;47.55;100011.53;4369259;32;39866;-88
2022/09/07 07:46:59;;;;;;;;;;;;;;;27.04;47.06;100016.56;4367911;32;37030;-91
2022/09/07 07:49:26;;;;;;;;;;;;;;;27.07;45.45;100017.28;4375419;32;38548;-87
2022/09/07 07:51:54;;;;;;;;;;;;;;;27.67;45.10;100016.94;4370110;32;38000;-88
2022/09/07 07:54:41;;;;;;;;;;;;;;;27.66;46.06;100019.66;4374237;32;38668;-91
2022/09/07 07:57:09;;;;;;;;;;;;;;;27.61;44.02;100006.63;4373060;32;37978;-87
2022/09/07 07:59:36;;;;;;;;;;;;;;;27.55;46.82;100006.94;4365807;32;38339;-90
2022/09/07 08:02:04;;;;;;;;;;;;;;;27.99;45.60;100007.31;4368909;32;37985;-90
2022/09/07 08:04:32;;;;;;;;;;;;;;;27.99;44.13;100001.12;4365134;32;40011;-85
2022/09/07 08:07:00;;;;;;;;;;;;;;;28.18;44.18;100004.50;4371396;32;37175;-88
2022/09/07 08:09:36;;;;;;;;;;;;;;;28.04;44.59;100004.38;4382138;32;37649;-87
2022/09/07 08:12:04;;;;;;;;;;;;;;;28.16;45.23;100002.87;4370159;32;38127;-89
2022/09/07 08:14:31;;;;;;;;;;;;;;;28.08;43.62;100005.06;4370393;32;39346;-92
2022/09/07 08:16:58;;;;;;;;;;;;;;;28.28;46.57;100013.72;4374241;32;37720;-96
2022/09/07 08:19:26;;;;;;;;;;;;;;;28.21;46.00;100012.34;4372303;32;37906;-84
2022/09/07 08:21:54;;;;;;;;;;;;;;;28.49;43.10;100005.50;4369867;32;39191;-93
2022/09/07 08:24:21;;;;;;;;;;;;;;;28.53;47.92;99996.44;4369335;32;38955;-94
2022/09/07 08:26:48;;;;;;;;;;;;;;;28.67;43.92;99993.84;4369304;32;38260;-92
2022/09/07 08:29:16;;;;;;;;;;;;;;;28.76;47.83;99991.59;4368811;32;38883;-91
2022/09/07 08:31:43;;;;;;;;;;;;;;;29.04;43.98;99998.91;4374519;32;38490;-92
2022/09/07 08:34:11;;;;;;;;;;;;;;;29.04;43.67;99999.78;4367318;32;39690;-92
2022/09/07 08:36:38;;;;;;;;;;;;;;;29.00;44.03;99998.19;4368699;32;38170;-89
2022/09/07 08:39:05;;;;;;;;;;;;;;;29.35;44.35;100000.63;4373690;32;39129;-90
2022/09/07 08:41:51;;;;;;;;;;;;;;;29.43;43.35;99993.87;4371571;32;37342;-90
2022/09/07 08:44:37;;;;;;;;;;;;;;;29.36;45.47;99997.03;4370584;32;40521;-91
2022/09/07 08:47:14;;;;;;;;;;;;;;;29.27;43.78;99998.41;4370024;32;36998;-93
2022/09/07 08:49:48;;;;;;;;;;;;;;;28.94;45.60;99998.53;4387831;32;38038;-88
2022/09/07 08:52:24;;;;;;;;;;;;;;;28.96;42.71;99993.97;4384688;32;38069;-94
2022/09/07 08:55:04;;;;;;;;;;;;;;;28.81;45.57;99989.53;4372693;32;38996;-90
2022/09/07 08:57:32;;;;;;;;;;;;;;;28.97;42.38;99985.03;4378134;32;37219;-95
2022/09/07 09:00:03;;;;;;;;;;;;;;;29.18;42.20;99991.81;4370729;32;37726;-96
2022/09/07 09:02:31;;;;;;;;;;;;;;;29.24;42.23;99987.94;4369956;32;37392;-95
2022/09/07 09:05:13;;;;;;;;;;;;;;;29.11;43.04;99986.94;4370704;32;39221;-95
2022/09/07 09:08:10;;;;;;;;;;;;;;;29.33;42.53;99975.88;4381613;32;36835;-95
2022/09/07 09:10:52;;;;;;;;;;;;;;;29.48;41.69;99979.41;4369054;32;39691;-91
2022/09/07 09:13:39;;;;;;;;;;;;;;;29.59;41.46;99992.97;4375988;32;37856;-93
2022/09/07 09:16:09;;;;;;;;;;;;;;;29.43;42.51;99993.03;4346774;32;39083;-93
2022/09/07 09:18:48;;;;;;;;;;;;;;;29.83;40.49;99985.31;4369432;32;37282;-91
2022/09/07 09:21:17;;;;;;;;;;;;;;;29.85;39.34;99983.41;4376671;32;38121;-93
2022/09/07 09:23:45;;;;;;;;;;;;;;;29.83;40.85;99985.31;4370011;32;38431;-93
2022/09/07 09:26:17;;;;;;;;;;;;;;;29.99;40.48;99985.22;4368994;32;39528;-93
2022/09/07 09:28:44;;;;;;;;;;;;;;;29.48;42.12;99985.59;4388169;32;37559;-91
2022/09/07 09:31:14;;;;;;;;;;;;;;;29.96;38.95;99975.56;4370379;32;39244;-90
2022/09/07 09:33:41;;;;;;;;;;;;;;;29.61;39.27;99975.09;4374761;32;38945;-89
2022/09/07 09:36:22;;;;;;;;;;;;;;;29.44;43.05;99984.06;4370327;32;40741;-92
2022/09/07 09:38:49;;;;;;;;;;;;;;;29.77;41.74;99970.56;4370438;32;37057;-90
2022/09/07 09:41:17;;;;;;;;;;;;;;;30.11;39.59;99969.28;4373371;32;38210;-93
2022/09/07 09:43:47;;;;;;;;;;;;;;;29.88;39.21;99967.22;4371816;32;39251;-91
2022/09/07 09:46:35;;;;;;;;;;;;;;;30.08;39.64;99974.81;4369453;32;39568;-90
2022/09/07 09:49:04;;;;;;;;;;;;;;;29.98;41.59;99972.84;4376313;32;37995;-93
2022/09/07 09:51:31;;;;;;;;;;;;;;;30.59;38.89;99969.81;4368536;32;38952;-89
2022/09/07 09:54:23;;;;;;;;;;;;;;;30.21;39.83;99960.72;4385363;32;39821;-91
2022/09/07 09:56:51;;;;;;;;;;;;;;;30.54;38.42;99953.22;4368228;32;40243;-90
2022/09/07 09:59:18;;;;;;;;;;;;;;;30.69;38.53;99953.16;4368947;32;38006;-91
2022/09/07 10:02:24;;;;;;;;;;;;;;;30.23;40.24;99957.00;4369516;32;38020;-91
2022/09/07 10:05:31;;;;;;;;;;;;;;;30.31;39.21;99951.16;4375639;32;38071;-90
2022/09/07 10:07:58;;;;;;;;;;;;;;;30.11;42.59;99947.06;4381454;32;37857;-92
2022/09/07 10:10:26;;;;;;;;;;;;;;;29.97;40.21;99950.63;4370847;32;37151;-90
2022/09/07 10:12:54;;;;;;;;;;;;;;;30.22;41.03;99949.13;4369836;32;38461;-92
2022/09/07 10:15:29;;;;;;;;;;;;;;;30.75;39.33;99948.28;4383822;32;37750;-95
2022/09/07 10:17:56;;;;;;;;;;;;;;;30.58;39.71;99946.72;4385338;32;39300;-91
2022/09/07 10:20:30;;;;;;;;;;;;;;;30.91;38.38;99940.13;4381272;32;37256;-88
2022/09/07 10:22:58;;;;;;;;;;;;;;;30.78;38.94;99942.75;4381598;32;38090;-91
2022/09/07 10:25:28;;;;;;;;;;;;;;;30.77;37.78;99941.06;4379764;32;37896;-91
2022/09/07 10:28:01;;;;;;;;;;;;;;;30.96;37.60;99930.00;4380991;32;38814;-90
2022/09/07 10:30:31;;;;;;;;;;;;;;;31.10;37.89;99941.56;4376006;32;37418;-90
2022/09/07 10:33:05;;;;;;;;;;;;;;;31.26;37.72;99942.25;4375295;32;37587;-90
2022/09/07 10:35:33;;;;;;;;;;;;;;;30.78;38.46;99941.91;4374986;32;38321;-91
2022/09/07 10:38:00;;;;;;;;;;;;;;;30.95;38.68;99932.75;4373872;32;39657;-90
2022/09/07 10:40:30;;;;;;;;;;;;;;;31.03;37.93;99933.97;4380961;32;37203;-94
2022/09/07 10:43:05;;;;;;;;;;;;;;;30.49;38.87;99933.97;4383129;32;38856;-92
2022/09/07 10:45:48;;;;;;;;;;;;;;;30.84;39.40;99929.97;4383692;32;38794;-93
2022/09/07 10:48:36;;;;;;;;;;;;;;;31.01;37.89;99935.88;4391367;32;40469;-91
2022/09/07 10:51:04;;;;;;;;;;;;;;;31.12;37.30;99934.31;4374382;32;38701;-90
2022/09/07 10:53:46;;;;;;;;;;;;;;;31.45;35.48;99921.31;4383784;32;37877;-90
2022/09/07 10:56:46;;;;;;;;;;;;;;;31.34;36.92;99934.59;4384976;32;38575;-90
2022/09/07 10:59:16;;;;;;;;;;;;;;;31.53;35.23;99922.63;4388967;32;38862;-92
2022/09/07 11:01:50;;;;;;;;;;;;;;;31.26;33.93;99920.84;4386467;32;37205;-89
2022/09/07 11:04:25;;;;;;;;;;;;;;;31.56;33.51;99922.38;4395643;32;39195;-89
2022/09/07 11:06:54;;;;;;;;;;;;;;;31.60;35.86;99918.56;4395865;32;38457;-89
2022/09/07 11:09:47;;;;;;;;;;;;;;;31.69;34.52;99920.59;4389242;32;38593;-90
2022/09/07 11:12:18;;;;;;;;;;;;;;;31.35;36.21;99919.41;4395788;32;36955;-88
2022/09/07 11:14:46;;;;;;;;;;;;;;;31.64;35.88;99920.03;4395111;32;37952;-90
2022/09/07 11:17:16;;;;;;;;;;;;;;;31.48;36.41;99915.75;4391344;32;39104;-90
2022/09/07 11:19:46;;;;;;;;;;;;;;;31.69;36.49;99915.22;4382830;32;39252;-91
2022/09/07 11:22:18;;;;;;;;;;;;;;;31.65;35.26;99908.34;4383232;32;36714;-90
2022/09/07 11:24:47;;;;;;;;;;;;;;;31.68;36.50;99906.31;4383377;32;38993;-92
2022/09/07 11:27:37;;;;;;;;;;;;;;;31.34;37.03;99907.84;4082454;32;10009013;-92
2022/09/07 11:30:11;;;;;;;;;;;;;;;31.59;36.81;99906.09;4396785;32;37631;-92
2022/09/07 11:32:40;;;;;;;;;;;;;;;31.29;37.35;99909.94;4377116;32;40043;-92
2022/09/07 11:35:11;;;;;;;;;;;;;;;31.59;35.38;99906.09;4380287;32;36567;-90
2022/09/07 11:37:41;;;;;;;;;;;;;;;31.33;37.97;99908.78;4376545;32;37666;-88
2022/09/07 11:40:11;;;;;;;;;;;;;;;30.89;37.58;99906.44;4377148;32;38987;-88
2022/09/07 11:42:49;;;;;;;;;;;;;;;31.08;37.07;99898.91;4381068;32;39152;-90
2022/09/07 11:45:24;;;;;;;;;;;;;;;31.43;37.76;99899.19;4384683;32;37370;-88
2022/09/07 11:47:56;;;;;;;;;;;;;;;31.48;36.76;99896.16;4361767;32;37660;-88
2022/09/07 11:50:24;;;;;;;;;;;;;;;31.46;34.71;99900.75;4374861;32;39229;-87
2022/09/07 11:52:56;;;;;;;;;;;;;;;31.60;35.36;99897.13;4380601;32;37462;-87
2022/09/07 11:55:26;;;;;;;;;;;;;;;31.28;38.17;99897.53;4380969;32;36985;-88
2022/09/07 11:57:59;;;;;;;;;;;;;;;30.80;36.94;99892.75;4363471;32;36273;-88
2022/09/07 12:00:30;;;;;;;;;;;;;;;30.59;38.28;99884.28;4375164;32;37932;-87
2022/09/07 12:03:05;;;;;;;;;;;;;;;31.17;37.78;99892.06;4369080;32;39235;-88
2022/09/07 12:05:48;;;;;;;;;;;;;;;30.96;36.11;99886.37;4380169;32;37052;-86
2022/09/07 12:08:28;;;;;;;;;;;;;;;31.24;36.75;99886.19;4384557;32;38138;-85
2022/09/07 12:11:13;;;;;;;;;;;;;;;31.59;35.65;99879.34;4375449;32;39130;-85
2022/09/07 12:13:52;;;;;;;;;;;;;;;31.53;37.51;99874.47;4376496;32;38473;-84
2022/09/07 12:16:22;;;;;;;;;;;;;;;30.59;37.82;99873.59;4381616;32;37388;-85
2022/09/07 12:18:49;;;;;;;;;;;;;;;30.80;38.03;99883.88;4034428;32;10008295;-86
2022/09/07 12:21:35;;;;;;;;;;;;;;;31.25;36.39;99871.00;4366986;32;37988;-86
2022/09/07 12:24:03;;;;;;;;;;;;;;;31.17;40.10;99873.31;4367554;32;38009;-85
2022/09/07 12:26:33;;;;;;;;;;;;;;;31.39;38.45;99873.59;4367968;32;40079;-86
2022/09/07 12:29:00;;;;;;;;;;;;;;;31.36;36.91;99873.78;4367646;32;37239;-86
2022/09/07 12:31:41;;;;;;;;;;;;;;;31.00;37.27;99875.34;4367474;32;38333;-86
2022/09/07 12:34:47;;;;;;;;;;;;;;;31.33;38.26;99868.66;4366156;32;39542;-86
2022/09/07 12:37:14;;;;;;;;;;;;;;;30.69;38.52;99878.34;4360044;32;39741;-85
2022/09/07 12:39:44;;;;;;;;;;;;;;;30.41;38.22;99877.53;4378645;32;37043;-87
2022/09/07 12:42:11;;;;;;;;;;;;;;;30.43;38.22;99870.25;4365699;32;37479;-87
2022/09/07 12:45:18;;;;;;;;;;;;;;;30.72;38.33;99870.97;4366456;32;37959;-88
2022/09/07 12:47:52;;;;;;;;;;;;;;;31.12;39.14;99864.78;4368707;32;38530;-89
2022/09/07 12:50:25;;;;;;;;;;;;;;;30.48;38.25;99864.63;4366337;32;38011;-88
2022/09/07 12:53:13;;;;;;;;;;;;;;;30.71;39.16;99850.56;4366074;32;38069;-88
2022/09/07 12:55:43;;;;;;;;;;;;;;;30.45;38.25;99854.97;4368874;32;38114;-84
2022/09/07 12:58:35;;;;;;;;;;;;;;;30.30;40.65;99855.97;4376715;32;39040;-87
2022/09/07 13:01:21;;;;;;;;;;;;;;;30.53;39.65;99847.28;4365096;32;38145;-90
2022/09/07 13:04:07;;;;;;;;;;;;;;;30.07;38.40;99866.31;4365298;32;37803;-87
2022/09/07 13:06:42;;;;;;;;;;;;;;;30.38;37.57;99853.69;4366093;32;38943;-87